sensor_id;sensor_type;location;lat;lon;timestamp;P1;durP1;ratioP1;P2;durP2;ratioP2
50872;SDS011;72604;40.088;18.346;2023-10-09T00:02:15;43.72;;;25.58;;
50872;SDS011;72604;40.088;18.346;2023-10-09T00:05:19;42.97;;;25.88;;
50872;SDS011;72604;40.088;18.346;2023-10-09T00:08:29;39.60;;;25.75;;
50872;SDS011;72604;40.088;18.346;2023-10-09T00:11:32;41.60;;;26.23;;
50872;SDS011;72604;40.088;18.346;2023-10-09T00:14:40;42.60;;;26.15;;
50872;SDS011;72604;40.088;18.346;2023-10-09T00:17:42;42.25;;;27.10;;
50872;SDS011;72604;40.088;18.346;2023-10-09T00:20:48;44.80;;;26.13;;
50872;SDS011;72604;40.088;18.346;2023-10-09T00:23:56;39.10;;;25.73;;
50872;SDS011;72604;40.088;18.346;2023-10-09T00:27:01;52.47;;;28.17;;
50872;SDS011;72604;40.088;18.346;2023-10-09T00:30:14;39.35;;;26.15;;
50872;SDS011;72604;40.088;18.346;2023-10-09T00:33:21;44.38;;;26.65;;
50872;SDS011;72604;40.088;18.346;2023-10-09T00:36:24;52.40;;;27.85;;
50872;SDS011;72604;40.088;18.346;2023-10-09T00:39:30;43.63;;;27.35;;
50872;SDS011;72604;40.088;18.346;2023-10-09T00:42:45;41.13;;;27.25;;
50872;SDS011;72604;40.088;18.346;2023-10-09T00:45:49;49.47;;;28.77;;
50872;SDS011;72604;40.088;18.346;2023-10-09T00:48:56;51.05;;;29.67;;
50872;SDS011;72604;40.088;18.346;2023-10-09T00:52:03;51.80;;;28.95;;
50872;SDS011;72604;40.088;18.346;2023-10-09T00:55:06;44.10;;;28.17;;
50872;SDS011;72604;40.088;18.346;2023-10-09T00:58:15;46.90;;;28.63;;
50872;SDS011;72604;40.088;18.346;2023-10-09T01:01:26;47.58;;;29.42;;
50872;SDS011;72604;40.088;18.346;2023-10-09T01:04:58;50.67;;;29.63;;
50872;SDS011;72604;40.088;18.346;2023-10-09T01:08:01;47.40;;;29.92;;
50872;SDS011;72604;40.088;18.346;2023-10-09T01:14:16;59.47;;;30.40;;
50872;SDS011;72604;40.088;18.346;2023-10-09T01:17:23;45.25;;;28.80;;
50872;SDS011;72604;40.088;18.346;2023-10-09T01:20:37;49.87;;;30.07;;
50872;SDS011;72604;40.088;18.346;2023-10-09T01:23:45;46.35;;;29.48;;
50872;SDS011;72604;40.088;18.346;2023-10-09T01:27:05;47.78;;;29.83;;
50872;SDS011;72604;40.088;18.346;2023-10-09T01:30:17;46.45;;;31.33;;
50872;SDS011;72604;40.088;18.346;2023-10-09T01:33:19;51.17;;;31.10;;
50872;SDS011;72604;40.088;18.346;2023-10-09T01:36:26;57.83;;;31.10;;
50872;SDS011;72604;40.088;18.346;2023-10-09T01:39:35;53.40;;;31.77;;
50872;SDS011;72604;40.088;18.346;2023-10-09T01:42:47;58.55;;;33.10;;
50872;SDS011;72604;40.088;18.346;2023-10-09T01:45:50;55.20;;;32.55;;
50872;SDS011;72604;40.088;18.346;2023-10-09T01:48:53;54.40;;;32.05;;
50872;SDS011;72604;40.088;18.346;2023-10-09T01:51:56;48.05;;;30.40;;
50872;SDS011;72604;40.088;18.346;2023-10-09T01:55:12;48.72;;;31.00;;
50872;SDS011;72604;40.088;18.346;2023-10-09T01:58:50;55.85;;;32.88;;
50872;SDS011;72604;40.088;18.346;2023-10-09T02:01:55;47.45;;;30.73;;
50872;SDS011;72604;40.088;18.346;2023-10-09T02:05:06;49.50;;;29.73;;
50872;SDS011;72604;40.088;18.346;2023-10-09T02:08:28;54.47;;;32.42;;
50872;SDS011;72604;40.088;18.346;2023-10-09T02:11:37;56.08;;;33.15;;
50872;SDS011;72604;40.088;18.346;2023-10-09T02:14:41;55.35;;;31.40;;
50872;SDS011;72604;40.088;18.346;2023-10-09T02:17:43;58.63;;;33.30;;
50872;SDS011;72604;40.088;18.346;2023-10-09T02:24:14;52.30;;;32.35;;
50872;SDS011;72604;40.088;18.346;2023-10-09T02:27:30;49.40;;;32.30;;
50872;SDS011;72604;40.088;18.346;2023-10-09T02:30:45;57.05;;;37.75;;
50872;SDS011;72604;40.088;18.346;2023-10-09T02:33:54;57.80;;;35.15;;
50872;SDS011;72604;40.088;18.346;2023-10-09T02:36:57;57.30;;;37.35;;
50872;SDS011;72604;40.088;18.346;2023-10-09T02:40:07;60.08;;;37.13;;
50872;SDS011;72604;40.088;18.346;2023-10-09T02:43:10;56.85;;;36.78;;
50872;SDS011;72604;40.088;18.346;2023-10-09T02:46:19;57.25;;;35.28;;
50872;SDS011;72604;40.088;18.346;2023-10-09T02:49:23;56.65;;;35.88;;
50872;SDS011;72604;40.088;18.346;2023-10-09T02:52:26;61.00;;;37.90;;
50872;SDS011;72604;40.088;18.346;2023-10-09T02:55:42;60.00;;;40.40;;
50872;SDS011;72604;40.088;18.346;2023-10-09T02:58:54;65.68;;;40.83;;
50872;SDS011;72604;40.088;18.346;2023-10-09T03:02:07;67.22;;;38.92;;
50872;SDS011;72604;40.088;18.346;2023-10-09T03:05:10;65.30;;;40.20;;
50872;SDS011;72604;40.088;18.346;2023-10-09T03:08:14;79.88;;;45.88;;
50872;SDS011;72604;40.088;18.346;2023-10-09T03:11:18;84.32;;;56.15;;
50872;SDS011;72604;40.088;18.346;2023-10-09T03:14:21;78.03;;;45.90;;
50872;SDS011;72604;40.088;18.346;2023-10-09T03:17:28;80.78;;;44.92;;
50872;SDS011;72604;40.088;18.346;2023-10-09T03:20:31;79.32;;;44.40;;
50872;SDS011;72604;40.088;18.346;2023-10-09T03:23:34;75.72;;;42.78;;
50872;SDS011;72604;40.088;18.346;2023-10-09T03:26:37;77.07;;;45.13;;
50872;SDS011;72604;40.088;18.346;2023-10-09T03:29:40;77.13;;;42.80;;
50872;SDS011;72604;40.088;18.346;2023-10-09T03:32:44;71.03;;;41.40;;
50872;SDS011;72604;40.088;18.346;2023-10-09T03:35:52;74.82;;;42.38;;
50872;SDS011;72604;40.088;18.346;2023-10-09T03:38:55;73.05;;;41.22;;
50872;SDS011;72604;40.088;18.346;2023-10-09T03:41:59;69.30;;;39.50;;
50872;SDS011;72604;40.088;18.346;2023-10-09T03:45:06;69.45;;;40.53;;
50872;SDS011;72604;40.088;18.346;2023-10-09T03:48:20;68.55;;;39.15;;
50872;SDS011;72604;40.088;18.346;2023-10-09T03:51:24;72.63;;;41.92;;
50872;SDS011;72604;40.088;18.346;2023-10-09T03:59:03;67.50;;;40.60;;
50872;SDS011;72604;40.088;18.346;2023-10-09T04:02:06;74.20;;;43.85;;
50872;SDS011;72604;40.088;18.346;2023-10-09T04:09:50;81.28;;;43.55;;
50872;SDS011;72604;40.088;18.346;2023-10-09T04:13:12;78.90;;;46.03;;
50872;SDS011;72604;40.088;18.346;2023-10-09T04:16:24;84.07;;;45.28;;
50872;SDS011;72604;40.088;18.346;2023-10-09T04:33:13;83.68;;;48.40;;
50872;SDS011;72604;40.088;18.346;2023-10-09T04:45:52;96.63;;;50.85;;
50872;SDS011;72604;40.088;18.346;2023-10-09T04:49:14;96.97;;;53.17;;
50872;SDS011;72604;40.088;18.346;2023-10-09T04:52:29;101.67;;;53.87;;
50872;SDS011;72604;40.088;18.346;2023-10-09T04:55:32;88.30;;;49.75;;
50872;SDS011;72604;40.088;18.346;2023-10-09T04:58:40;88.72;;;51.08;;
50872;SDS011;72604;40.088;18.346;2023-10-09T05:01:43;100.10;;;51.33;;
50872;SDS011;72604;40.088;18.346;2023-10-09T05:04:59;87.78;;;51.38;;
50872;SDS011;72604;40.088;18.346;2023-10-09T05:08:29;94.40;;;54.88;;
50872;SDS011;72604;40.088;18.346;2023-10-09T05:11:34;111.53;;;64.20;;
50872;SDS011;72604;40.088;18.346;2023-10-09T05:14:55;104.63;;;73.75;;
50872;SDS011;72604;40.088;18.346;2023-10-09T05:18:10;103.32;;;69.65;;
50872;SDS011;72604;40.088;18.346;2023-10-09T05:21:17;94.97;;;62.28;;
50872;SDS011;72604;40.088;18.346;2023-10-09T05:24:32;79.68;;;49.17;;
50872;SDS011;72604;40.088;18.346;2023-10-09T05:27:45;68.38;;;43.58;;
50872;SDS011;72604;40.088;18.346;2023-10-09T05:30:52;71.47;;;42.65;;
50872;SDS011;72604;40.088;18.346;2023-10-09T05:34:08;61.00;;;40.53;;
50872;SDS011;72604;40.088;18.346;2023-10-09T05:37:13;65.10;;;40.33;;
50872;SDS011;72604;40.088;18.346;2023-10-09T05:40:19;61.97;;;41.05;;
50872;SDS011;72604;40.088;18.346;2023-10-09T05:43:25;65.07;;;37.92;;
50872;SDS011;72604;40.088;18.346;2023-10-09T05:46:46;54.60;;;36.08;;
50872;SDS011;72604;40.088;18.346;2023-10-09T05:50:07;54.38;;;34.50;;
50872;SDS011;72604;40.088;18.346;2023-10-09T05:53:10;56.40;;;36.83;;
50872;SDS011;72604;40.088;18.346;2023-10-09T05:56:33;48.88;;;35.30;;
50872;SDS011;72604;40.088;18.346;2023-10-09T05:59:55;58.13;;;34.78;;
50872;SDS011;72604;40.088;18.346;2023-10-09T06:03:33;50.70;;;33.20;;
50872;SDS011;72604;40.088;18.346;2023-10-09T06:06:55;48.97;;;33.08;;
50872;SDS011;72604;40.088;18.346;2023-10-09T06:09:58;46.63;;;32.83;;
50872;SDS011;72604;40.088;18.346;2023-10-09T06:13:12;46.75;;;33.15;;
50872;SDS011;72604;40.088;18.346;2023-10-09T06:16:39;47.35;;;33.55;;
50872;SDS011;72604;40.088;18.346;2023-10-09T06:19:45;47.53;;;33.20;;
50872;SDS011;72604;40.088;18.346;2023-10-09T06:22:50;52.28;;;34.13;;
50872;SDS011;72604;40.088;18.346;2023-10-09T06:26:00;58.15;;;36.05;;
50872;SDS011;72604;40.088;18.346;2023-10-09T06:29:23;53.22;;;35.53;;
50872;SDS011;72604;40.088;18.346;2023-10-09T06:32:38;50.17;;;34.85;;
50872;SDS011;72604;40.088;18.346;2023-10-09T06:35:51;51.50;;;36.00;;
50872;SDS011;72604;40.088;18.346;2023-10-09T06:38:56;48.30;;;33.95;;
50872;SDS011;72604;40.088;18.346;2023-10-09T06:42:18;49.60;;;33.80;;
50872;SDS011;72604;40.088;18.346;2023-10-09T06:45:59;48.35;;;32.35;;
50872;SDS011;72604;40.088;18.346;2023-10-09T06:49:20;45.75;;;32.05;;
50872;SDS011;72604;40.088;18.346;2023-10-09T06:52:35;46.10;;;32.47;;
50872;SDS011;72604;40.088;18.346;2023-10-09T06:55:56;41.67;;;30.42;;
50872;SDS011;72604;40.088;18.346;2023-10-09T06:59:08;38.75;;;29.23;;
50872;SDS011;72604;40.088;18.346;2023-10-09T07:02:43;40.75;;;29.58;;
50872;SDS011;72604;40.088;18.346;2023-10-09T07:05:49;38.25;;;26.92;;
50872;SDS011;72604;40.088;18.346;2023-10-09T07:09:06;46.00;;;30.80;;
50872;SDS011;72604;40.088;18.346;2023-10-09T07:12:09;46.28;;;30.67;;
50872;SDS011;72604;40.088;18.346;2023-10-09T07:15:22;43.55;;;29.73;;
50872;SDS011;72604;40.088;18.346;2023-10-09T07:18:43;42.90;;;31.00;;
50872;SDS011;72604;40.088;18.346;2023-10-09T07:21:56;41.05;;;29.38;;
50872;SDS011;72604;40.088;18.346;2023-10-09T07:25:04;37.05;;;26.63;;
50872;SDS011;72604;40.088;18.346;2023-10-09T07:28:22;35.25;;;26.33;;
50872;SDS011;72604;40.088;18.346;2023-10-09T07:31:38;37.25;;;25.77;;
50872;SDS011;72604;40.088;18.346;2023-10-09T07:34:50;39.10;;;26.25;;
50872;SDS011;72604;40.088;18.346;2023-10-09T07:37:56;33.63;;;24.50;;
50872;SDS011;72604;40.088;18.346;2023-10-09T07:40:58;34.95;;;24.90;;
50872;SDS011;72604;40.088;18.346;2023-10-09T07:44:21;35.60;;;25.77;;
50872;SDS011;72604;40.088;18.346;2023-10-09T07:47:38;37.45;;;25.95;;
50872;SDS011;72604;40.088;18.346;2023-10-09T07:50:59;38.75;;;26.00;;
50872;SDS011;72604;40.088;18.346;2023-10-09T07:54:06;34.72;;;24.95;;
50872;SDS011;72604;40.088;18.346;2023-10-09T07:57:10;32.00;;;23.08;;
50872;SDS011;72604;40.088;18.346;2023-10-09T08:00:17;32.38;;;23.25;;
50872;SDS011;72604;40.088;18.346;2023-10-09T08:03:52;32.13;;;22.23;;
50872;SDS011;72604;40.088;18.346;2023-10-09T08:07:07;34.40;;;22.67;;
50872;SDS011;72604;40.088;18.346;2023-10-09T08:10:11;29.92;;;23.13;;
50872;SDS011;72604;40.088;18.346;2023-10-09T08:13:20;29.83;;;20.90;;
50872;SDS011;72604;40.088;18.346;2023-10-09T08:16:42;27.67;;;20.20;;
50872;SDS011;72604;40.088;18.346;2023-10-09T08:19:48;26.08;;;19.52;;
50872;SDS011;72604;40.088;18.346;2023-10-09T08:23:13;28.20;;;21.17;;
50872;SDS011;72604;40.088;18.346;2023-10-09T08:26:24;27.63;;;19.83;;
50872;SDS011;72604;40.088;18.346;2023-10-09T08:29:30;27.30;;;18.35;;
50872;SDS011;72604;40.088;18.346;2023-10-09T08:32:36;24.10;;;17.02;;
50872;SDS011;72604;40.088;18.346;2023-10-09T08:35:45;24.77;;;18.27;;
50872;SDS011;72604;40.088;18.346;2023-10-09T08:38:51;25.80;;;17.92;;
50872;SDS011;72604;40.088;18.346;2023-10-09T08:42:00;24.02;;;16.52;;
50872;SDS011;72604;40.088;18.346;2023-10-09T08:45:04;24.07;;;16.33;;
50872;SDS011;72604;40.088;18.346;2023-10-09T08:48:08;20.73;;;15.15;;
50872;SDS011;72604;40.088;18.346;2023-10-09T08:51:17;19.00;;;13.45;;
50872;SDS011;72604;40.088;18.346;2023-10-09T08:57:24;29.08;;;14.65;;
50872;SDS011;72604;40.088;18.346;2023-10-09T09:00:29;15.88;;;11.38;;
50872;SDS011;72604;40.088;18.346;2023-10-09T09:03:41;16.73;;;10.73;;
50872;SDS011;72604;40.088;18.346;2023-10-09T09:06:47;14.32;;;11.52;;
50872;SDS011;72604;40.088;18.346;2023-10-09T09:09:56;17.30;;;11.68;;
50872;SDS011;72604;40.088;18.346;2023-10-09T09:13:00;14.13;;;10.07;;
50872;SDS011;72604;40.088;18.346;2023-10-09T09:16:05;15.32;;;10.02;;
50872;SDS011;72604;40.088;18.346;2023-10-09T09:19:08;18.38;;;9.95;;
50872;SDS011;72604;40.088;18.346;2023-10-09T09:22:11;14.45;;;8.18;;
50872;SDS011;72604;40.088;18.346;2023-10-09T09:25:14;11.95;;;8.27;;
50872;SDS011;72604;40.088;18.346;2023-10-09T09:28:17;17.73;;;9.40;;
50872;SDS011;72604;40.088;18.346;2023-10-09T09:31:23;14.57;;;9.43;;
50872;SDS011;72604;40.088;18.346;2023-10-09T09:34:26;15.30;;;9.90;;
50872;SDS011;72604;40.088;18.346;2023-10-09T09:37:32;15.32;;;11.20;;
50872;SDS011;72604;40.088;18.346;2023-10-09T09:40:44;12.23;;;8.25;;
50872;SDS011;72604;40.088;18.346;2023-10-09T09:43:47;16.98;;;10.10;;
50872;SDS011;72604;40.088;18.346;2023-10-09T09:46:49;9.80;;;7.57;;
50872;SDS011;72604;40.088;18.346;2023-10-09T09:49:56;22.00;;;9.43;;
50872;SDS011;72604;40.088;18.346;2023-10-09T09:53:02;12.48;;;8.70;;
50872;SDS011;72604;40.088;18.346;2023-10-09T09:56:05;14.13;;;7.90;;
50872;SDS011;72604;40.088;18.346;2023-10-09T09:59:08;10.85;;;8.73;;
50872;SDS011;72604;40.088;18.346;2023-10-09T10:02:15;11.57;;;7.57;;
50872;SDS011;72604;40.088;18.346;2023-10-09T10:05:22;14.40;;;8.85;;
50872;SDS011;72604;40.088;18.346;2023-10-09T10:08:31;12.63;;;7.82;;
50872;SDS011;72604;40.088;18.346;2023-10-09T10:11:41;15.15;;;7.72;;
50872;SDS011;72604;40.088;18.346;2023-10-09T10:18:32;11.90;;;8.25;;
50872;SDS011;72604;40.088;18.346;2023-10-09T10:21:37;12.38;;;7.30;;
50872;SDS011;72604;40.088;18.346;2023-10-09T10:28:27;10.48;;;6.65;;
50872;SDS011;72604;40.088;18.346;2023-10-09T10:34:58;10.82;;;6.70;;
50872;SDS011;72604;40.088;18.346;2023-10-09T10:38:50;9.93;;;6.45;;
50872;SDS011;72604;40.088;18.346;2023-10-09T10:41:38;10.55;;;6.20;;
50872;SDS011;72604;40.088;18.346;2023-10-09T10:45:01;13.07;;;6.90;;
50872;SDS011;72604;40.088;18.346;2023-10-09T10:48:05;11.82;;;6.30;;
50872;SDS011;72604;40.088;18.346;2023-10-09T10:51:11;12.93;;;6.13;;
50872;SDS011;72604;40.088;18.346;2023-10-09T10:54:20;12.00;;;6.53;;
50872;SDS011;72604;40.088;18.346;2023-10-09T10:57:35;13.05;;;6.50;;
50872;SDS011;72604;40.088;18.346;2023-10-09T11:00:55;13.20;;;6.25;;
50872;SDS011;72604;40.088;18.346;2023-10-09T11:03:58;17.50;;;6.68;;
50872;SDS011;72604;40.088;18.346;2023-10-09T11:07:02;15.40;;;6.35;;
50872;SDS011;72604;40.088;18.346;2023-10-09T11:10:14;13.85;;;6.53;;
50872;SDS011;72604;40.088;18.346;2023-10-09T11:13:28;13.50;;;6.00;;
50872;SDS011;72604;40.088;18.346;2023-10-09T11:16:38;11.50;;;6.35;;
50872;SDS011;72604;40.088;18.346;2023-10-09T11:19:44;10.95;;;5.43;;
50872;SDS011;72604;40.088;18.346;2023-10-09T11:22:47;13.95;;;5.60;;
50872;SDS011;72604;40.088;18.346;2023-10-09T11:26:19;11.05;;;5.75;;
50872;SDS011;72604;40.088;18.346;2023-10-09T11:29:29;11.93;;;6.10;;
50872;SDS011;72604;40.088;18.346;2023-10-09T11:32:44;11.30;;;5.88;;
50872;SDS011;72604;40.088;18.346;2023-10-09T11:35:55;13.55;;;6.53;;
50872;SDS011;72604;40.088;18.346;2023-10-09T11:39:02;9.63;;;5.32;;
50872;SDS011;72604;40.088;18.346;2023-10-09T11:42:26;11.68;;;6.45;;
50872;SDS011;72604;40.088;18.346;2023-10-09T11:45:48;13.30;;;5.15;;
50872;SDS011;72604;40.088;18.346;2023-10-09T11:49:04;10.50;;;5.55;;
50872;SDS011;72604;40.088;18.346;2023-10-09T11:52:36;13.13;;;5.63;;
50872;SDS011;72604;40.088;18.346;2023-10-09T11:55:58;10.68;;;4.68;;
50872;SDS011;72604;40.088;18.346;2023-10-09T11:59:01;8.63;;;4.28;;
50872;SDS011;72604;40.088;18.346;2023-10-09T12:02:07;11.15;;;4.85;;
50872;SDS011;72604;40.088;18.346;2023-10-09T12:05:15;9.30;;;4.22;;
50872;SDS011;72604;40.088;18.346;2023-10-09T12:08:20;10.52;;;4.75;;
50872;SDS011;72604;40.088;18.346;2023-10-09T12:11:24;10.43;;;6.38;;
50872;SDS011;72604;40.088;18.346;2023-10-09T12:14:33;13.10;;;4.90;;
50872;SDS011;72604;40.088;18.346;2023-10-09T12:17:39;13.60;;;5.50;;
50872;SDS011;72604;40.088;18.346;2023-10-09T12:20:46;12.52;;;5.68;;
50872;SDS011;72604;40.088;18.346;2023-10-09T12:23:57;15.30;;;5.90;;
50872;SDS011;72604;40.088;18.346;2023-10-09T12:27:02;11.40;;;5.50;;
50872;SDS011;72604;40.088;18.346;2023-10-09T12:30:11;8.50;;;5.28;;
50872;SDS011;72604;40.088;18.346;2023-10-09T12:33:14;10.02;;;4.90;;
50872;SDS011;72604;40.088;18.346;2023-10-09T12:36:17;9.77;;;5.20;;
50872;SDS011;72604;40.088;18.346;2023-10-09T12:39:21;10.25;;;5.28;;
50872;SDS011;72604;40.088;18.346;2023-10-09T12:42:24;12.75;;;5.80;;
50872;SDS011;72604;40.088;18.346;2023-10-09T12:45:29;9.82;;;5.32;;
50872;SDS011;72604;40.088;18.346;2023-10-09T12:48:35;9.10;;;5.25;;
50872;SDS011;72604;40.088;18.346;2023-10-09T12:51:39;7.53;;;4.10;;
50872;SDS011;72604;40.088;18.346;2023-10-09T12:54:45;9.38;;;4.70;;
50872;SDS011;72604;40.088;18.346;2023-10-09T12:57:48;7.97;;;4.75;;
50872;SDS011;72604;40.088;18.346;2023-10-09T13:00:53;7.63;;;4.13;;
50872;SDS011;72604;40.088;18.346;2023-10-09T13:03:55;8.02;;;4.55;;
50872;SDS011;72604;40.088;18.346;2023-10-09T13:06:58;8.40;;;4.28;;
50872;SDS011;72604;40.088;18.346;2023-10-09T13:10:04;6.68;;;4.55;;
50872;SDS011;72604;40.088;18.346;2023-10-09T13:13:10;9.05;;;4.45;;
50872;SDS011;72604;40.088;18.346;2023-10-09T13:16:14;8.90;;;4.47;;
50872;SDS011;72604;40.088;18.346;2023-10-09T13:19:26;9.57;;;5.30;;
50872;SDS011;72604;40.088;18.346;2023-10-09T13:22:29;12.10;;;4.80;;
50872;SDS011;72604;40.088;18.346;2023-10-09T13:25:32;12.15;;;5.10;;
50872;SDS011;72604;40.088;18.346;2023-10-09T13:28:41;6.93;;;4.32;;
50872;SDS011;72604;40.088;18.346;2023-10-09T13:31:44;9.75;;;4.25;;
50872;SDS011;72604;40.088;18.346;2023-10-09T13:34:49;6.20;;;3.70;;
50872;SDS011;72604;40.088;18.346;2023-10-09T13:37:55;7.38;;;4.35;;
50872;SDS011;72604;40.088;18.346;2023-10-09T13:40:58;10.32;;;4.68;;
50872;SDS011;72604;40.088;18.346;2023-10-09T13:44:05;7.38;;;4.03;;
50872;SDS011;72604;40.088;18.346;2023-10-09T13:47:08;8.43;;;4.88;;
50872;SDS011;72604;40.088;18.346;2023-10-09T13:50:22;12.07;;;6.25;;
50872;SDS011;72604;40.088;18.346;2023-10-09T13:53:26;9.68;;;5.80;;
50872;SDS011;72604;40.088;18.346;2023-10-09T13:56:29;10.57;;;6.13;;
50872;SDS011;72604;40.088;18.346;2023-10-09T13:59:35;13.50;;;8.00;;
50872;SDS011;72604;40.088;18.346;2023-10-09T14:02:38;23.98;;;14.18;;
50872;SDS011;72604;40.088;18.346;2023-10-09T14:05:41;9.38;;;4.90;;
50872;SDS011;72604;40.088;18.346;2023-10-09T14:09:07;11.32;;;7.05;;
50872;SDS011;72604;40.088;18.346;2023-10-09T14:12:11;12.57;;;5.88;;
50872;SDS011;72604;40.088;18.346;2023-10-09T14:15:17;10.05;;;6.68;;
50872;SDS011;72604;40.088;18.346;2023-10-09T14:18:22;11.85;;;6.68;;
50872;SDS011;72604;40.088;18.346;2023-10-09T14:21:29;11.23;;;6.88;;
50872;SDS011;72604;40.088;18.346;2023-10-09T14:24:31;12.70;;;7.45;;
50872;SDS011;72604;40.088;18.346;2023-10-09T14:27:39;12.45;;;6.97;;
50872;SDS011;72604;40.088;18.346;2023-10-09T14:30:42;14.15;;;7.45;;
50872;SDS011;72604;40.088;18.346;2023-10-09T14:33:48;10.10;;;5.50;;
50872;SDS011;72604;40.088;18.346;2023-10-09T14:36:54;11.52;;;6.05;;
50872;SDS011;72604;40.088;18.346;2023-10-09T14:39:57;13.52;;;6.55;;
50872;SDS011;72604;40.088;18.346;2023-10-09T14:43:00;12.18;;;6.57;;
50872;SDS011;72604;40.088;18.346;2023-10-09T14:46:05;16.20;;;6.90;;
50872;SDS011;72604;40.088;18.346;2023-10-09T14:49:12;14.90;;;6.80;;
50872;SDS011;72604;40.088;18.346;2023-10-09T14:52:16;11.10;;;6.60;;
50872;SDS011;72604;40.088;18.346;2023-10-09T14:55:20;14.40;;;6.70;;
50872;SDS011;72604;40.088;18.346;2023-10-09T14:58:27;13.95;;;8.13;;
50872;SDS011;72604;40.088;18.346;2023-10-09T15:01:32;11.32;;;7.00;;
50872;SDS011;72604;40.088;18.346;2023-10-09T15:04:35;11.90;;;7.18;;
50872;SDS011;72604;40.088;18.346;2023-10-09T15:07:38;10.55;;;6.65;;
50872;SDS011;72604;40.088;18.346;2023-10-09T15:10:44;10.90;;;6.22;;
50872;SDS011;72604;40.088;18.346;2023-10-09T15:13:47;11.02;;;5.30;;
50872;SDS011;72604;40.088;18.346;2023-10-09T15:16:50;14.18;;;6.75;;
50872;SDS011;72604;40.088;18.346;2023-10-09T15:19:53;13.45;;;6.60;;
50872;SDS011;72604;40.088;18.346;2023-10-09T15:22:58;10.85;;;6.50;;
50872;SDS011;72604;40.088;18.346;2023-10-09T15:26:02;11.98;;;6.47;;
50872;SDS011;72604;40.088;18.346;2023-10-09T15:29:08;10.32;;;4.72;;
50872;SDS011;72604;40.088;18.346;2023-10-09T15:32:11;10.80;;;5.90;;
50872;SDS011;72604;40.088;18.346;2023-10-09T15:35:17;14.80;;;6.07;;
50872;SDS011;72604;40.088;18.346;2023-10-09T15:38:20;9.65;;;6.00;;
50872;SDS011;72604;40.088;18.346;2023-10-09T15:41:23;10.27;;;6.32;;
50872;SDS011;72604;40.088;18.346;2023-10-09T15:44:26;14.38;;;6.20;;
50872;SDS011;72604;40.088;18.346;2023-10-09T15:47:30;12.73;;;5.93;;
50872;SDS011;72604;40.088;18.346;2023-10-09T15:50:34;8.13;;;5.83;;
50872;SDS011;72604;40.088;18.346;2023-10-09T15:53:37;8.68;;;5.50;;
50872;SDS011;72604;40.088;18.346;2023-10-09T15:56:40;10.25;;;5.50;;
50872;SDS011;72604;40.088;18.346;2023-10-09T15:59:45;13.15;;;5.85;;
50872;SDS011;72604;40.088;18.346;2023-10-09T16:02:48;10.27;;;5.10;;
50872;SDS011;72604;40.088;18.346;2023-10-09T16:05:54;11.45;;;5.20;;
50872;SDS011;72604;40.088;18.346;2023-10-09T16:09:00;11.35;;;5.53;;
50872;SDS011;72604;40.088;18.346;2023-10-09T16:12:03;11.15;;;5.53;;
50872;SDS011;72604;40.088;18.346;2023-10-09T16:15:06;8.88;;;5.15;;
50872;SDS011;72604;40.088;18.346;2023-10-09T16:18:10;13.70;;;5.82;;
50872;SDS011;72604;40.088;18.346;2023-10-09T16:21:13;11.70;;;5.68;;
50872;SDS011;72604;40.088;18.346;2023-10-09T16:24:16;11.13;;;5.55;;
50872;SDS011;72604;40.088;18.346;2023-10-09T16:27:19;8.95;;;5.05;;
50872;SDS011;72604;40.088;18.346;2023-10-09T16:30:25;11.30;;;5.75;;
50872;SDS011;72604;40.088;18.346;2023-10-09T16:33:29;11.82;;;5.93;;
50872;SDS011;72604;40.088;18.346;2023-10-09T16:36:32;8.57;;;5.80;;
50872;SDS011;72604;40.088;18.346;2023-10-09T16:39:35;16.40;;;5.93;;
50872;SDS011;72604;40.088;18.346;2023-10-09T16:42:40;12.85;;;6.32;;
50872;SDS011;72604;40.088;18.346;2023-10-09T16:45:44;14.65;;;6.35;;
50872;SDS011;72604;40.088;18.346;2023-10-09T16:48:50;10.52;;;5.90;;
50872;SDS011;72604;40.088;18.346;2023-10-09T16:52:00;18.13;;;6.53;;
50872;SDS011;72604;40.088;18.346;2023-10-09T16:55:08;11.43;;;6.28;;
50872;SDS011;72604;40.088;18.346;2023-10-09T16:58:11;12.35;;;6.60;;
50872;SDS011;72604;40.088;18.346;2023-10-09T17:01:16;14.17;;;6.87;;
50872;SDS011;72604;40.088;18.346;2023-10-09T17:04:22;13.52;;;7.68;;
50872;SDS011;72604;40.088;18.346;2023-10-09T17:07:28;14.57;;;8.13;;
50872;SDS011;72604;40.088;18.346;2023-10-09T17:10:36;17.52;;;8.82;;
50872;SDS011;72604;40.088;18.346;2023-10-09T17:13:47;17.65;;;9.52;;
50872;SDS011;72604;40.088;18.346;2023-10-09T17:16:50;18.80;;;9.85;;
50872;SDS011;72604;40.088;18.346;2023-10-09T17:19:54;18.30;;;10.10;;
50872;SDS011;72604;40.088;18.346;2023-10-09T17:22:56;17.27;;;11.05;;
50872;SDS011;72604;40.088;18.346;2023-10-09T17:26:02;22.88;;;11.90;;
50872;SDS011;72604;40.088;18.346;2023-10-09T17:29:05;24.15;;;12.50;;
50872;SDS011;72604;40.088;18.346;2023-10-09T17:32:11;25.70;;;12.95;;
50872;SDS011;72604;40.088;18.346;2023-10-09T17:35:15;24.05;;;12.77;;
50872;SDS011;72604;40.088;18.346;2023-10-09T17:38:18;28.07;;;12.60;;
50872;SDS011;72604;40.088;18.346;2023-10-09T17:41:22;26.25;;;12.55;;
50872;SDS011;72604;40.088;18.346;2023-10-09T17:44:24;21.38;;;11.75;;
50872;SDS011;72604;40.088;18.346;2023-10-09T17:47:29;26.37;;;11.30;;
50872;SDS011;72604;40.088;18.346;2023-10-09T17:50:31;20.83;;;12.15;;
50872;SDS011;72604;40.088;18.346;2023-10-09T17:53:34;22.40;;;11.20;;
50872;SDS011;72604;40.088;18.346;2023-10-09T17:56:40;18.60;;;10.40;;
50872;SDS011;72604;40.088;18.346;2023-10-09T17:59:42;22.10;;;10.95;;
50872;SDS011;72604;40.088;18.346;2023-10-09T18:02:45;23.25;;;11.70;;
50872;SDS011;72604;40.088;18.346;2023-10-09T18:05:49;20.30;;;10.50;;
50872;SDS011;72604;40.088;18.346;2023-10-09T18:08:52;26.02;;;11.13;;
50872;SDS011;72604;40.088;18.346;2023-10-09T18:11:55;22.48;;;10.88;;
50872;SDS011;72604;40.088;18.346;2023-10-09T18:14:58;17.92;;;10.43;;
50872;SDS011;72604;40.088;18.346;2023-10-09T18:18:06;15.57;;;9.85;;
50872;SDS011;72604;40.088;18.346;2023-10-09T18:21:14;15.30;;;9.60;;
50872;SDS011;72604;40.088;18.346;2023-10-09T18:24:21;17.23;;;9.93;;
50872;SDS011;72604;40.088;18.346;2023-10-09T18:27:24;22.00;;;11.40;;
50872;SDS011;72604;40.088;18.346;2023-10-09T18:30:29;22.65;;;12.30;;
50872;SDS011;72604;40.088;18.346;2023-10-09T18:33:33;20.65;;;12.00;;
50872;SDS011;72604;40.088;18.346;2023-10-09T18:36:36;22.00;;;11.93;;
50872;SDS011;72604;40.088;18.346;2023-10-09T18:39:40;19.23;;;11.27;;
50872;SDS011;72604;40.088;18.346;2023-10-09T18:42:43;18.63;;;10.32;;
50872;SDS011;72604;40.088;18.346;2023-10-09T18:45:46;16.92;;;9.40;;
50872;SDS011;72604;40.088;18.346;2023-10-09T18:48:50;19.35;;;9.27;;
50872;SDS011;72604;40.088;18.346;2023-10-09T18:51:53;14.60;;;9.07;;
50872;SDS011;72604;40.088;18.346;2023-10-09T18:54:57;17.05;;;9.63;;
50872;SDS011;72604;40.088;18.346;2023-10-09T18:57:59;16.33;;;9.80;;
50872;SDS011;72604;40.088;18.346;2023-10-09T19:01:04;16.83;;;9.90;;
50872;SDS011;72604;40.088;18.346;2023-10-09T19:04:14;17.50;;;10.98;;
50872;SDS011;72604;40.088;18.346;2023-10-09T19:10:23;21.10;;;11.68;;